Time;durP1;ratioP1;P1;durP2;ratioP2;P2;SDS_P1;SDS_P2;PMS_P1;PMS_P2;Temp;Humidity;BMP_temperature;BMP_pressure;BME280_temperature;BME280_humidity;BME280_pressure;Samples;Min_cycle;Max_cycle;Signal;HPM_P1;HPM_P2
2023/11/14 00:00:06;;;;;;;9.10;5.50;;;;;;;4.57;79.24;99259.89;104716;1271;60585;-74
2023/11/14 00:02:34;;;;;;;8.20;5.80;;;;;;;4.61;79.05;99270.06;104857;1270;61175;-71
2023/11/14 00:05:01;;;;;;;7.90;6.30;;;;;;;4.66;79.18;99268.15;104751;1270;72669;-71
2023/11/14 00:07:29;;;;;;;7.70;5.90;;;;;;;4.62;78.86;99267.34;104662;1273;68774;-73
2023/11/14 00:09:57;;;;;;;7.90;6.20;;;;;;;4.57;79.04;99264.31;104784;1270;73117;-73
2023/11/14 00:12:24;;;;;;;8.30;6.00;;;;;;;4.57;79.24;99256.53;104598;1270;60891;-72
2023/11/14 00:14:52;;;;;;;9.80;6.40;;;;;;;4.66;79.09;99251.16;104680;1273;60517;-73
2023/11/14 00:17:20;;;;;;;9.40;6.00;;;;;;;4.66;79.06;99248.14;104732;1273;73802;-72
2023/11/14 00:19:47;;;;;;;9.00;6.10;;;;;;;4.61;79.05;99245.83;104822;1271;70021;-75
2023/11/14 00:22:15;;;;;;;8.10;6.70;;;;;;;4.57;79.04;99249.86;104777;1273;72762;-74
2023/11/14 00:24:43;;;;;;;7.50;6.20;;;;;;;4.62;79.20;99255.36;104954;1272;60474;-73
2023/11/14 00:27:11;;;;;;;9.70;6.90;;;;;;;4.65;78.98;99253.13;104808;1273;60410;-71
2023/11/14 00:29:39;;;;;;;9.70;6.70;;;;;;;4.61;79.00;99246.59;104703;1273;73179;-74
2023/11/14 00:32:08;;;;;;;8.20;5.60;;;;;;;4.56;79.18;99244.17;104566;1270;70380;-74
2023/11/14 00:34:37;;;;;;;9.30;5.70;;;;;;;4.60;79.40;99241.02;105762;1269;72555;-74
2023/11/14 00:37:05;;;;;;;10.40;7.00;;;;;;;4.65;79.35;99241.42;106233;1272;59544;-73
2023/11/14 00:42:33;;;;;;;8.10;6.10;;;;;;;4.61;79.38;99240.08;102860;1293;601053;-72
2023/11/14 00:45:02;;;;;;;9.00;6.90;;;;;;;4.66;79.41;99230.63;105027;1267;60936;-74
2023/11/14 00:47:29;;;;;;;6.80;5.70;;;;;;;4.70;78.98;99222.89;105048;1268;60086;-73
2023/11/14 00:49:57;;;;;;;9.30;6.90;;;;;;;4.64;78.91;99222.86;104703;1267;71939;-74
2023/11/14 00:52:25;;;;;;;9.60;6.30;;;;;;;4.61;79.04;99219.75;104859;1266;69965;-74
2023/11/14 00:54:52;;;;;;;9.70;6.70;;;;;;;4.68;78.86;99226.38;104993;1267;71411;-73
2023/11/14 00:57:19;;;;;;;10.30;6.60;;;;;;;4.70;78.92;99222.52;104957;1267;210250;-70
2023/11/14 00:59:48;;;;;;;12.00;7.00;;;;;;;4.65;79.05;99219.66;105049;1269;59256;-70
2023/11/14 01:02:16;;;;;;;10.00;6.30;;;;;;;4.62;79.24;99211.74;105286;1263;71479;-70
2023/11/14 01:04:43;;;;;;;8.30;6.40;;;;;;;4.67;79.19;99213.03;105571;1260;70254;-71
2023/11/14 01:07:11;;;;;;;9.90;6.30;;;;;;;4.74;79.07;99213.25;105242;1257;72734;-71
2023/11/14 01:09:39;;;;;;;8.10;6.40;;;;;;;4.71;78.96;99209.63;105490;1261;59771;-73
2023/11/14 01:12:07;;;;;;;11.00;6.50;;;;;;;4.64;78.96;99200.95;105451;1259;59506;-70
2023/11/14 01:14:35;;;;;;;8.20;6.20;;;;;;;4.66;78.83;99214.11;105428;1260;73516;-68
2023/11/14 01:17:02;;;;;;;8.70;6.60;;;;;;;4.72;78.65;99211.82;105203;1264;69022;-74
2023/11/14 01:19:30;;;;;;;8.00;6.00;;;;;;;4.68;78.81;99207.27;105431;1262;71406;-73
2023/11/14 01:21:58;;;;;;;8.80;7.10;;;;;;;4.59;79.24;99208.65;105312;1260;59631;-73
2023/11/14 01:24:25;;;;;;;8.40;6.80;;;;;;;4.52;79.49;99211.19;105590;1260;60000;-73
2023/11/14 01:26:54;;;;;;;10.50;7.70;;;;;;;4.54;79.40;99221.53;105451;1264;71857;-73
2023/11/14 01:29:22;;;;;;;10.90;7.70;;;;;;;4.47;79.35;99190.98;105418;1260;70158;-72
2023/11/14 01:31:49;;;;;;;12.80;7.50;;;;;;;4.36;79.70;99192.87;105443;1260;72682;-71
2023/11/14 01:34:17;;;;;;;8.70;6.50;;;;;;;4.29;80.16;99202.98;105380;1261;59788;-72
2023/11/14 01:36:45;;;;;;;9.20;7.30;;;;;;;4.33;80.15;99199.48;105501;1258;59596;-71
2023/11/14 01:39:12;;;;;;;9.80;6.70;;;;;;;4.28;80.13;99198.39;105444;1258;73152;-71
2023/11/14 01:41:39;;;;;;;11.10;7.60;;;;;;;4.17;80.55;99190.80;105496;1260;69970;-71
2023/11/14 01:44:09;;;;;;;9.90;6.40;;;;;;;4.09;80.97;99189.74;105439;1260;72675;-70
2023/11/14 01:46:36;;;;;;;9.80;6.80;;;;;;;4.12;80.92;99175.98;105439;1258;60863;-72
2023/11/14 01:49:04;;;;;;;8.90;7.20;;;;;;;4.09;81.02;99178.52;104917;1265;61098;-72
2023/11/14 01:51:31;;;;;;;9.10;6.90;;;;;;;4.01;81.30;99178.58;105406;1260;71748;-74
2023/11/14 01:53:59;;;;;;;9.10;6.30;;;;;;;3.94;81.56;99181.09;105358;1265;69102;-73
2023/11/14 01:56:27;;;;;;;9.60;7.40;;;;;;;3.99;81.37;99183.27;105269;1260;71407;-74
2023/11/14 01:58:54;;;;;;;9.60;7.90;;;;;;;3.99;81.52;99179.41;105324;1260;59728;-74
2023/11/14 02:01:22;;;;;;;12.10;7.60;;;;;;;3.91;81.55;99180.53;105267;1260;59645;-73
2023/11/14 02:03:51;;;;;;;11.00;6.90;;;;;;;3.85;82.09;99172.14;105592;1260;71158;-73
2023/11/14 02:06:18;;;;;;;11.30;7.60;;;;;;;3.90;81.80;99170.42;105368;1259;70141;-71
2023/11/14 02:08:46;;;;;;;11.10;8.30;;;;;;;3.91;81.89;99167.91;105240;1260;71378;-72
2023/11/14 02:11:14;;;;;;;10.80;7.60;;;;;;;3.85;81.99;99155.00;105392;1260;59686;-72
2023/11/14 02:13:45;;;;;;;9.80;7.90;;;;;;;3.78;82.21;99153.20;105340;1260;59894;-75
2023/11/14 02:16:13;;;;;;;10.30;7.60;;;;;;;3.81;82.10;99161.09;105593;1265;74559;-74
2023/11/14 02:18:40;;;;;;;12.20;8.60;;;;;;;3.85;81.99;99155.99;105716;1259;70914;-75
2023/11/14 02:21:08;;;;;;;12.00;8.60;;;;;;;3.81;82.16;99151.10;105499;1260;72523;-73
2023/11/14 02:23:36;;;;;;;11.60;8.90;;;;;;;3.74;82.30;99154.20;105493;1260;59602;-74
2023/11/14 02:26:04;;;;;;;11.50;7.90;;;;;;;3.71;82.22;99158.27;105549;1262;59601;-70
2023/11/14 02:28:32;;;;;;;11.50;7.10;;;;;;;3.78;82.06;99159.79;105507;1262;73056;-71
2023/11/14 02:31:00;;;;;;;10.60;7.10;;;;;;;3.78;82.23;99161.02;105724;1254;68055;-70
2023/11/14 02:33:28;;;;;;;10.90;7.80;;;;;;;3.71;82.32;99161.09;105750;1257;72749;-73
2023/11/14 02:35:55;;;;;;;9.10;7.70;;;;;;;3.66;82.54;99161.59;105805;1254;59700;-69
2023/11/14 02:38:25;;;;;;;10.40;7.80;;;;;;;3.68;82.32;99160.70;105486;1259;60075;-70
2023/11/14 02:40:52;;;;;;;8.90;7.70;;;;;;;3.72;82.19;99161.04;105705;1254;72975;-71
2023/11/14 02:43:20;;;;;;;10.80;8.20;;;;;;;3.66;82.23;99164.38;105518;1256;68716;-72
2023/11/14 02:45:48;;;;;;;16.60;11.60;;;;;;;3.57;82.52;99163.63;105911;1256;72736;-70
2023/11/14 02:48:15;;;;;;;13.60;9.80;;;;;;;3.55;82.57;99156.46;105388;1254;60524;-72
2023/11/14 02:50:54;;;;;;;12.90;10.50;;;;;;;3.58;82.61;99151.98;105703;1253;59619;-72
2023/11/14 02:53:22;;;;;;;13.70;10.00;;;;;;;3.51;82.77;99150.45;105406;1254;73800;-72
2023/11/14 02:55:50;;;;;;;10.90;9.20;;;;;;;3.43;83.10;99143.69;105374;1259;69277;-71
2023/11/14 02:58:18;;;;;;;12.80;8.30;;;;;;;3.43;83.06;99138.80;105339;1256;72694;-72
2023/11/14 03:00:48;;;;;;;11.20;8.50;;;;;;;3.47;82.93;99138.10;105303;1257;59745;-72
2023/11/14 03:03:17;;;;;;;12.40;9.10;;;;;;;3.41;83.04;99133.67;105911;1256;59634;-69
2023/11/14 03:05:45;;;;;;;13.20;8.50;;;;;;;3.35;83.13;99136.52;105727;1258;73959;-72
2023/11/14 03:08:13;;;;;;;11.80;8.00;;;;;;;3.34;83.03;99141.85;105608;1259;70087;-71
2023/11/14 03:10:40;;;;;;;12.80;8.40;;;;;;;3.41;82.77;99146.48;105769;1258;72926;-70
2023/11/14 03:13:09;;;;;;;11.50;8.70;;;;;;;3.38;82.51;99146.04;105802;1259;60153;-71
2023/11/14 03:15:36;;;;;;;13.40;8.80;;;;;;;3.31;82.68;99147.37;105487;1254;61014;-71
2023/11/14 03:18:05;;;;;;;20.60;9.90;;;;;;;3.25;82.97;99148.05;105331;1255;72693;-70
2023/11/14 03:20:33;;;;;;;11.90;8.70;;;;;;;3.29;82.54;99151.36;105643;1254;69558;-71
2023/11/14 03:23:02;;;;;;;11.50;9.20;;;;;;;3.32;82.62;99151.45;105724;1254;72691;-71
2023/11/14 03:25:31;;;;;;;21.60;15.70;;;;;;;3.26;82.68;99151.16;105618;1258;60069;-72
2023/11/14 03:27:59;;;;;;;13.70;10.60;;;;;;;3.19;82.80;99150.55;105869;1259;59682;-70
2023/11/14 03:30:27;;;;;;;14.90;11.10;;;;;;;3.20;83.00;99151.65;105546;1259;72884;-70
2023/11/14 03:32:56;;;;;;;16.80;10.70;;;;;;;3.25;82.73;99156.16;105474;1254;69044;-71
2023/11/14 03:35:24;;;;;;;15.40;11.50;;;;;;;3.19;82.75;99155.23;105322;1262;71632;-72
2023/11/14 03:37:52;;;;;;;15.20;10.60;;;;;;;3.16;82.85;99152.69;105552;1257;60919;-74
2023/11/14 03:40:20;;;;;;;12.90;10.20;;;;;;;3.22;82.66;99146.04;105557;1254;59557;-69
2023/11/14 03:42:49;;;;;;;12.40;10.90;;;;;;;3.22;82.46;99141.27;105365;1254;71857;-69
2023/11/14 03:45:16;;;;;;;24.90;16.50;;;;;;;3.17;82.57;99145.25;105754;1253;70010;-73
2023/11/14 03:47:44;;;;;;;18.60;13.40;;;;;;;3.18;82.75;99137.33;105814;1254;72708;-72
2023/11/14 03:50:12;;;;;;;14.40;10.80;;;;;;;3.24;82.33;99130.42;105831;1259;59734;-72
2023/11/14 03:52:39;;;;;;;16.30;11.30;;;;;;;3.22;82.38;99110.02;105792;1254;59598;-73
2023/11/14 03:55:08;;;;;;;14.10;10.20;;;;;;;3.15;82.33;99101.15;105782;1259;73104;-70
2023/11/14 03:57:36;;;;;;;13.90;9.90;;;;;;;3.12;82.61;99092.70;105741;1254;69983;-71
2023/11/14 04:00:09;;;;;;;13.30;9.10;;;;;;;3.16;82.66;99081.48;105765;1259;71424;-71
2023/11/14 04:02:41;;;;;;;11.90;9.10;;;;;;;3.26;82.40;99077.60;105784;1255;59710;-72
2023/11/14 04:05:09;;;;;;;15.10;9.50;;;;;;;3.27;82.33;99074.58;105492;1258;60040;-72
2023/11/14 04:07:37;;;;;;;12.10;9.50;;;;;;;3.25;82.31;99075.46;105773;1258;73070;-70
2023/11/14 04:10:07;;;;;;;26.20;17.20;;;;;;;3.22;82.26;99073.80;106012;1254;70431;-69
2023/11/14 04:12:35;;;;;;;13.40;8.30;;;;;;;3.20;82.40;99075.75;105859;1259;72669;-72
2023/11/14 04:15:03;;;;;;;13.10;9.50;;;;;;;3.27;81.96;99079.64;105867;1255;60585;-71
2023/11/14 04:17:30;;;;;;;13.20;9.10;;;;;;;3.29;81.70;99073.86;105814;1259;59995;-69
2023/11/14 04:19:58;;;;;;;11.90;9.30;;;;;;;3.25;82.08;99064.25;105428;1254;71788;-72
2023/11/14 04:22:25;;;;;;;13.30;9.60;;;;;;;3.21;82.38;99066.14;105946;1254;68879;-71
2023/11/14 04:24:53;;;;;;;14.60;10.20;;;;;;;3.18;82.02;99063.47;105940;1258;70829;-70
2023/11/14 04:27:21;;;;;;;10.20;8.40;;;;;;;3.15;82.19;99057.74;105914;1257;59718;-73
2023/11/14 04:29:48;;;;;;;13.00;8.90;;;;;;;3.24;81.83;99061.84;105902;1254;60060;-74
2023/11/14 04:32:16;;;;;;;14.20;9.30;;;;;;;3.27;81.94;99056.34;105783;1253;71014;-73
2023/11/14 04:34:44;;;;;;;15.10;9.60;;;;;;;3.23;81.94;99059.39;105928;1253;70674;-73
2023/11/14 04:37:12;;;;;;;22.00;10.60;;;;;;;3.17;82.12;99048.98;105832;1254;71086;-69
2023/11/14 04:39:39;;;;;;;21.00;11.10;;;;;;;3.12;82.19;99040.50;105666;1254;59995;-72
2023/11/14 04:42:07;;;;;;;13.80;10.30;;;;;;;3.10;81.92;99039.29;105700;1259;62321;-74
2023/11/14 04:44:34;;;;;;;13.70;9.00;;;;;;;3.16;81.86;99041.22;105790;1254;71783;-72
2023/11/14 04:47:02;;;;;;;13.40;10.60;;;;;;;3.15;81.71;99046.06;106009;1259;69697;-73
2023/11/14 04:49:30;;;;;;;15.20;11.10;;;;;;;3.06;81.87;99059.94;105902;1257;71471;-71
2023/11/14 04:51:58;;;;;;;13.80;10.70;;;;;;;2.96;81.97;99057.16;105952;1259;60553;-73
2023/11/14 04:54:26;;;;;;;13.30;10.40;;;;;;;2.89;82.07;99057.95;106014;1258;60485;-71
2023/11/14 04:56:54;;;;;;;12.50;10.20;;;;;;;2.93;82.19;99057.23;106122;1259;72557;-73
2023/11/14 04:59:21;;;;;;;12.30;9.40;;;;;;;2.95;82.13;99059.20;106252;1254;69352;-76
2023/11/14 05:01:49;;;;;;;13.50;9.30;;;;;;;2.91;82.49;99063.91;106338;1254;73354;-74
2023/11/14 05:04:16;;;;;;;14.40;11.30;;;;;;;2.87;82.40;99054.65;106501;1257;60475;-74
2023/11/14 05:06:44;;;;;;;14.90;10.30;;;;;;;2.84;82.64;99050.17;106424;1259;60421;-74
2023/11/14 05:09:15;;;;;;;12.80;9.10;;;;;;;2.93;82.18;99053.48;106449;1256;72788;-73
2023/11/14 05:11:43;;;;;;;12.90;9.50;;;;;;;2.98;81.93;99057.24;106310;1254;70164;-73
2023/11/14 05:14:10;;;;;;;12.20;8.80;;;;;;;2.97;81.95;99059.04;106047;1255;70367;-73
2023/11/14 05:16:42;;;;;;;13.50;8.90;;;;;;;2.94;81.87;99060.45;106132;1259;60319;-73
2023/11/14 05:19:10;;;;;;;11.00;8.10;;;;;;;2.94;81.81;99058.09;106322;1254;60496;-69
2023/11/14 05:21:38;;;;;;;13.70;7.80;;;;;;;3.02;81.34;99048.77;106427;1254;71312;-73
2023/11/14 05:24:08;;;;;;;10.90;8.40;;;;;;;3.09;81.02;99039.27;106221;1259;67748;-73
2023/11/14 05:26:36;;;;;;;13.00;9.60;;;;;;;3.08;81.13;99033.71;107772;1253;70872;-74
2023/11/14 05:29:06;;;;;;;13.20;8.80;;;;;;;3.08;81.17;99032.36;109239;1254;59443;-74
2023/11/14 05:31:35;;;;;;;11.20;8.80;;;;;;;3.08;81.20;99029.38;109217;1253;58764;-70
2023/11/14 05:34:03;;;;;;;11.20;7.60;;;;;;;3.15;80.78;99019.75;109165;1253;72676;-73
2023/11/14 05:36:30;;;;;;;11.00;8.80;;;;;;;3.30;80.53;99020.20;109156;1253;68718;-71
2023/11/14 05:38:58;;;;;;;12.30;9.50;;;;;;;3.34;79.96;99014.22;108867;1259;71432;-73
2023/11/14 05:41:26;;;;;;;16.20;11.30;;;;;;;3.36;80.12;99016.65;108752;1253;59527;-70
2023/11/14 05:43:53;;;;;;;16.80;10.20;;;;;;;3.39;79.79;99009.47;108854;1254;58768;-73
2023/11/14 05:46:21;;;;;;;17.60;11.70;;;;;;;3.45;79.31;99014.60;109047;1253;72631;-75
2023/11/14 05:48:48;;;;;;;14.30;10.20;;;;;;;3.60;78.91;99015.77;109248;1254;68866;-73
2023/11/14 05:51:17;;;;;;;18.80;13.00;;;;;;;3.64;78.36;99013.94;109186;1253;71449;-76
2023/11/14 05:53:45;;;;;;;25.20;15.10;;;;;;;3.64;78.40;99020.92;109034;1254;58316;-76
2023/11/14 05:56:13;;;;;;;18.40;13.20;;;;;;;3.65;78.21;99022.06;109192;1254;58850;-76
2023/11/14 05:58:40;;;;;;;19.10;13.70;;;;;;;3.69;78.00;99020.47;109256;1254;73179;-76
2023/11/14 06:01:10;;;;;;;19.40;11.90;;;;;;;3.85;77.99;99012.42;109339;1254;69034;-77
2023/11/14 06:03:37;;;;;;;17.60;12.00;;;;;;;3.92;77.10;99002.55;109367;1252;72548;-76
2023/11/14 06:06:05;;;;;;;19.30;12.60;;;;;;;3.94;77.14;99001.55;109338;1253;58798;-78
2023/11/14 06:08:33;;;;;;;18.70;11.70;;;;;;;3.93;77.11;98995.98;109302;1253;58732;-77
2023/11/14 06:11:00;;;;;;;16.20;12.00;;;;;;;3.94;76.65;98994.66;109273;1253;72623;-79
2023/11/14 06:13:28;;;;;;;15.70;9.80;;;;;;;4.03;76.51;98996.48;109453;1253;68747;-77
2023/11/14 06:15:56;;;;;;;14.20;9.50;;;;;;;4.14;76.41;98998.39;109385;1253;71308;-79
2023/11/14 06:18:23;;;;;;;16.80;10.10;;;;;;;4.16;76.20;98997.91;109263;1254;58823;-78
2023/11/14 06:20:51;;;;;;;12.50;9.60;;;;;;;4.17;75.51;98998.73;109461;1252;58768;-79
2023/11/14 06:23:19;;;;;;;12.40;9.40;;;;;;;4.17;75.54;98994.34;109326;1254;72638;-81
2023/11/14 06:25:47;;;;;;;13.10;8.70;;;;;;;4.17;75.22;98998.02;109370;1252;69181;-80
2023/11/14 06:28:14;;;;;;;11.70;8.30;;;;;;;4.25;75.11;98994.80;109412;1256;71602;-79
2023/11/14 06:30:42;;;;;;;12.30;8.20;;;;;;;4.37;74.38;98993.80;109308;1254;58334;-78
2023/11/14 06:33:09;;;;;;;9.00;7.10;;;;;;;4.37;74.70;98988.02;109406;1254;58741;-79
2023/11/14 06:35:37;;;;;;;11.20;8.10;;;;;;;4.36;74.43;98984.62;109448;1253;72480;-78
2023/11/14 06:38:05;;;;;;;10.70;7.40;;;;;;;4.35;74.05;98980.10;109396;1254;68715;-79
2023/11/14 06:40:32;;;;;;;10.40;7.40;;;;;;;4.37;73.81;98972.66;107210;1254;71412;-79
2023/11/14 06:43:00;;;;;;;11.90;7.00;;;;;;;4.37;73.89;98963.49;106291;1254;60513;-78
2023/11/14 06:45:28;;;;;;;8.50;6.70;;;;;;;4.45;73.80;98964.13;106089;1256;60366;-79
2023/11/14 06:47:56;;;;;;;10.30;7.00;;;;;;;4.57;73.85;98958.77;105981;1254;71546;-77
2023/11/14 06:50:23;;;;;;;9.50;7.00;;;;;;;4.58;73.36;98951.45;105985;1259;70606;-76
2023/11/14 06:53:07;;;;;;;11.00;7.60;;;;;;;4.56;72.77;98949.02;105981;1259;73123;-78
2023/11/14 06:55:35;;;;;;;10.70;7.40;;;;;;;4.54;72.52;98954.27;105791;1260;60403;-79
2023/11/14 06:58:03;;;;;;;9.50;6.40;;;;;;;4.54;72.24;98957.79;106058;1254;60348;-79
2023/11/14 07:00:31;;;;;;;9.10;6.90;;;;;;;4.54;71.97;98950.26;105896;1258;72705;-77
2023/11/14 07:02:58;;;;;;;13.60;7.90;;;;;;;4.55;72.12;98954.96;106290;1254;70440;-80
2023/11/14 07:05:26;;;;;;;10.30;6.80;;;;;;;4.58;71.88;98948.46;105752;1254;72726;-78
2023/11/14 07:07:54;;;;;;;12.70;7.20;;;;;;;4.73;71.75;98942.80;105911;1254;60562;-77
2023/11/14 07:10:23;;;;;;;13.80;8.80;;;;;;;4.78;71.64;98937.37;106060;1259;60420;-78
2023/11/14 07:12:51;;;;;;;13.60;8.80;;;;;;;4.79;71.86;98935.55;106150;1254;72650;-78
2023/11/14 07:15:20;;;;;;;15.40;9.20;;;;;;;4.81;71.85;98943.11;105858;1259;70932;-79
2023/11/14 07:17:49;;;;;;;15.30;9.90;;;;;;;4.81;71.48;98939.23;106071;1259;71381;-78
2023/11/14 07:20:20;;;;;;;16.50;11.90;;;;;;;4.81;71.26;98932.75;105698;1260;60545;-78
2023/11/14 07:22:48;;;;;;;18.50;11.40;;;;;;;4.81;71.40;98930.79;105812;1259;60952;-80
2023/11/14 07:25:17;;;;;;;15.60;11.20;;;;;;;4.81;71.23;98927.44;105928;1259;73881;-79
2023/11/14 07:27:46;;;;;;;15.90;10.30;;;;;;;4.82;71.25;98917.76;106192;1259;69216;-80
2023/11/14 07:30:14;;;;;;;14.90;9.20;;;;;;;4.86;71.26;98911.15;105933;1260;71582;-80
2023/11/14 07:32:42;;;;;;;13.10;8.10;;;;;;;5.01;70.89;98900.55;105999;1254;60563;-78
2023/11/14 07:35:10;;;;;;;9.80;7.20;;;;;;;5.06;70.19;98906.05;106011;1259;60546;-79
2023/11/14 07:37:38;;;;;;;11.40;7.50;;;;;;;5.06;70.01;98896.92;107372;1259;72775;-79
2023/11/14 07:40:07;;;;;;;10.90;7.10;;;;;;;5.05;69.74;98896.13;107854;1254;68882;-78
2023/11/14 07:42:34;;;;;;;11.30;7.30;;;;;;;5.05;69.65;98879.48;106918;1254;72795;-79
2023/11/14 07:45:02;;;;;;;11.60;7.80;;;;;;;5.03;69.73;98863.84;106529;1260;60415;-78
2023/11/14 07:47:30;;;;;;;10.70;7.90;;;;;;;5.03;69.83;98859.45;106611;1253;60543;-78
2023/11/14 07:49:58;;;;;;;12.10;8.40;;;;;;;5.03;69.92;98850.58;106261;1254;74189;-77
2023/11/14 07:52:27;;;;;;;13.50;9.10;;;;;;;5.03;70.10;98844.05;106280;1258;68793;-78
2023/11/14 07:54:55;;;;;;;12.00;8.00;;;;;;;5.03;69.79;98847.91;107081;1254;73602;-76
2023/11/14 07:57:24;;;;;;;12.30;7.70;;;;;;;5.11;69.42;98831.64;107877;1259;60510;-77
2023/11/14 07:59:51;;;;;;;11.50;8.10;;;;;;;5.26;68.79;98835.58;106395;1260;60805;-78
2023/11/14 08:02:20;;;;;;;12.50;7.90;;;;;;;5.30;68.41;98824.93;106217;1259;73838;-79
2023/11/14 08:04:52;;;;;;;12.90;8.10;;;;;;;5.33;67.78;98829.08;106153;1257;69010;-79
2023/11/14 08:07:20;;;;;;;12.70;8.30;;;;;;;5.34;67.41;98831.08;105938;1258;71465;-79
2023/11/14 08:09:48;;;;;;;11.00;8.00;;;;;;;5.34;66.90;98831.50;105943;1259;60332;-78
2023/11/14 08:12:16;;;;;;;12.60;7.90;;;;;;;5.32;66.91;98827.70;105894;1258;60953;-79
2023/11/14 08:14:45;;;;;;;11.40;8.50;;;;;;;5.30;66.21;98836.19;105874;1254;74058;-77
2023/11/14 08:17:12;;;;;;;11.00;7.30;;;;;;;5.28;65.93;98838.81;105861;1256;69953;-77
2023/11/14 08:19:40;;;;;;;16.40;8.10;;;;;;;5.26;65.75;98853.48;105812;1255;72664;-76
2023/11/14 08:22:09;;;;;;;10.70;7.10;;;;;;;5.24;65.63;98848.53;105828;1260;60428;-79
2023/11/14 08:24:36;;;;;;;11.20;7.10;;;;;;;5.23;65.64;98849.90;105829;1254;62198;-78
2023/11/14 08:27:07;;;;;;;12.30;7.90;;;;;;;5.22;65.68;98872.33;105903;1259;76131;-80
2023/11/14 08:29:36;;;;;;;12.40;7.90;;;;;;;5.20;66.05;98875.00;105866;1260;69109;-79
2023/11/14 08:32:04;;;;;;;12.60;9.20;;;;;;;5.18;66.25;98879.00;106112;1254;72659;-79
2023/11/14 08:34:33;;;;;;;10.40;7.80;;;;;;;5.18;66.08;98872.56;105926;1259;60655;-78
2023/11/14 08:37:01;;;;;;;11.80;8.00;;;;;;;5.19;66.51;98874.07;106037;1254;60366;-78
2023/11/14 08:39:28;;;;;;;11.00;7.90;;;;;;;5.19;66.60;98870.36;105930;1257;73960;-79
2023/11/14 08:41:57;;;;;;;10.50;7.70;;;;;;;5.18;66.33;98874.11;106246;1259;70344;-77
2023/11/14 08:44:25;;;;;;;14.40;8.70;;;;;;;5.19;66.34;98859.43;106136;1258;71439;-79
2023/11/14 08:46:52;;;;;;;12.40;8.50;;;;;;;5.20;66.25;98848.14;106022;1260;60511;-79
2023/11/14 08:49:20;;;;;;;11.00;7.50;;;;;;;5.22;66.32;98834.23;106192;1257;60331;-78
2023/11/14 08:51:49;;;;;;;13.60;7.30;;;;;;;5.26;65.72;98837.09;106195;1254;73845;-79
2023/11/14 08:54:17;;;;;;;10.50;7.40;;;;;;;5.35;65.73;98822.89;106056;1258;72677;-79
2023/11/14 08:56:44;;;;;;;10.00;7.40;;;;;;;5.44;65.44;98809.85;106192;1254;72709;-78
2023/11/14 08:59:14;;;;;;;11.00;7.60;;;;;;;5.53;65.18;98811.08;106757;1253;60443;-78
2023/11/14 09:01:44;;;;;;;11.10;7.90;;;;;;;5.60;64.91;98803.11;106703;1260;60482;-79
2023/11/14 09:04:13;;;;;;;11.20;7.70;;;;;;;5.67;64.75;98800.39;106663;1254;74040;-81
2023/11/14 09:06:41;;;;;;;9.80;7.50;;;;;;;5.75;64.32;98785.77;106622;1259;70147;-79
2023/11/14 09:09:08;;;;;;;9.40;7.20;;;;;;;5.78;64.30;98778.78;106431;1254;72690;-80
2023/11/14 09:11:37;;;;;;;12.00;6.90;;;;;;;5.80;64.07;98772.80;106427;1254;60507;-80
2023/11/14 09:14:05;;;;;;;11.40;6.70;;;;;;;5.80;63.94;98789.09;106265;1254;60443;-79
2023/11/14 09:16:33;;;;;;;9.60;6.50;;;;;;;5.83;63.35;98783.17;106981;1254;72731;-80
2023/11/14 09:19:01;;;;;;;8.40;6.40;;;;;;;5.89;63.39;98780.79;106644;1254;68738;-80
2023/11/14 09:21:29;;;;;;;9.00;7.10;;;;;;;5.94;63.08;98805.74;106416;1259;71451;-81
2023/11/14 09:23:57;;;;;;;10.60;6.20;;;;;;;5.97;63.01;98796.66;106285;1256;60405;-79
2023/11/14 09:26:24;;;;;;;8.30;6.80;;;;;;;5.99;62.84;98800.14;106460;1256;60392;-81
2023/11/14 09:28:52;;;;;;;10.20;6.80;;;;;;;6.00;63.04;98797.26;106262;1260;74242;-80
2023/11/14 09:31:21;;;;;;;10.30;6.10;;;;;;;5.98;63.24;98795.83;106248;1260;70090;-80
2023/11/14 09:33:49;;;;;;;9.50;6.20;;;;;;;5.96;63.57;98807.73;106106;1260;72515;-77
2023/11/14 09:36:17;;;;;;;10.80;7.40;;;;;;;5.91;63.72;98791.25;106357;1253;61462;-78
2023/11/14 09:38:44;;;;;;;10.10;6.50;;;;;;;5.89;64.07;98782.04;106252;1253;60030;-78
2023/11/14 09:41:12;;;;;;;10.40;6.80;;;;;;;5.86;64.63;98782.33;106077;1261;72604;-76
2023/11/14 09:43:40;;;;;;;10.00;6.70;;;;;;;5.82;64.91;98773.80;106146;1260;69463;-77
2023/11/14 09:46:08;;;;;;;9.20;7.00;;;;;;;5.80;65.22;98766.83;106117;1260;73141;-77
2023/11/14 09:48:37;;;;;;;14.70;7.00;;;;;;;5.79;65.70;98768.86;106311;1257;60483;-77
2023/11/14 09:51:05;;;;;;;9.90;7.10;;;;;;;5.76;65.70;98764.45;106295;1259;60339;-76
2023/11/14 09:53:33;;;;;;;10.30;7.40;;;;;;;5.75;66.15;98752.41;106268;1254;74429;-78
2023/11/14 09:56:03;;;;;;;10.90;7.60;;;;;;;5.74;66.21;98757.72;106405;1260;69102;-76
2023/11/14 09:58:32;;;;;;;10.30;6.90;;;;;;;5.72;66.50;98763.55;106139;1261;72718;-77
2023/11/14 10:01:02;;;;;;;10.80;7.90;;;;;;;5.72;67.05;98750.60;106505;1264;60447;-79
2023/11/14 10:03:31;;;;;;;10.60;6.70;;;;;;;5.71;67.28;98739.92;107478;1254;61725;-79
2023/11/14 10:05:59;;;;;;;10.10;6.80;;;;;;;5.71;67.59;98736.55;106644;1254;72679;-79
2023/11/14 10:08:28;;;;;;;11.30;7.10;;;;;;;5.72;67.64;98725.96;106027;1261;69931;-78
2023/11/14 10:11:09;;;;;;;8.90;6.90;;;;;;;5.70;68.11;98722.47;106018;1254;71798;-78
2023/11/14 10:13:37;;;;;;;9.30;6.80;;;;;;;5.66;68.43;98720.60;105967;1255;60447;-80
2023/11/14 10:16:18;;;;;;;8.70;6.20;;;;;;;5.62;68.89;98701.02;105747;1254;60636;-77
2023/11/14 10:18:48;;;;;;;8.90;6.60;;;;;;;5.67;69.07;98699.76;105899;1255;73920;-79
2023/11/14 10:21:23;;;;;;;9.10;7.50;;;;;;;5.66;69.20;98698.64;105939;1254;71603;-77
2023/11/14 10:23:50;;;;;;;11.10;7.20;;;;;;;5.56;69.90;98686.54;105821;1254;73719;-75
2023/11/14 10:26:18;;;;;;;11.50;7.70;;;;;;;5.48;70.62;98677.70;105836;1255;61451;-78
2023/11/14 10:28:50;;;;;;;9.60;7.30;;;;;;;5.42;71.43;98678.57;105894;1260;59295;-77
2023/11/14 10:31:41;;;;;;;15.40;8.20;;;;;;;5.37;71.75;98678.73;105822;1260;76036;-79
2023/11/14 10:34:34;;;;;;;10.40;6.90;;;;;;;5.41;72.20;98678.08;105767;1254;70014;-78
2023/11/14 10:37:04;;;;;;;14.20;7.70;;;;;;;5.39;73.36;98669.61;105683;1265;74110;-77
2023/11/14 10:39:32;;;;;;;12.60;6.60;;;;;;;5.22;76.95;98683.42;105897;1261;61623;-79
2023/11/14 10:42:06;;;;;;;8.60;5.50;;;;;;;4.94;79.32;98680.88;105786;1258;62331;-78
2023/11/14 10:44:34;;;;;;;8.50;5.90;;;;;;;4.70;79.91;98680.84;105891;1254;72598;-74
2023/11/14 10:47:03;;;;;;;9.00;6.30;;;;;;;4.54;81.36;98677.81;105915;1254;72456;-77
2023/11/14 10:49:31;;;;;;;11.00;6.60;;;;;;;4.34;82.58;98660.85;105795;1254;72723;-80
2023/11/14 10:51:59;;;;;;;9.60;6.30;;;;;;;4.27;83.64;98650.11;105715;1254;60405;-81
2023/11/14 10:54:28;;;;;;;9.90;6.30;;;;;;;4.26;84.78;98644.64;106084;1254;61138;-79
2023/11/14 10:56:56;;;;;;;11.20;6.50;;;;;;;4.16;85.70;98632.84;106178;1259;75962;-79
2023/11/14 10:59:26;;;;;;;8.60;6.60;;;;;;;4.09;86.89;98619.36;106060;1259;72720;-77
2023/11/14 11:01:56;;;;;;;12.80;7.40;;;;;;;4.13;87.90;98617.88;106110;1259;72799;-80
2023/11/14 11:04:25;;;;;;;11.00;7.50;;;;;;;4.15;87.73;98611.55;105805;1254;60503;-80
2023/11/14 11:06:53;;;;;;;12.00;7.40;;;;;;;4.08;88.60;98614.48;105774;1260;60420;-81
2023/11/14 11:09:23;;;;;;;10.40;7.40;;;;;;;4.09;89.14;98598.66;106134;1256;72920;-80
2023/11/14 11:11:52;;;;;;;8.70;6.70;;;;;;;4.17;89.35;98594.90;106314;1254;70319;-79
2023/11/14 11:14:21;;;;;;;11.20;7.20;;;;;;;4.19;89.76;98587.48;106334;1254;72428;-80
2023/11/14 11:16:51;;;;;;;12.10;8.00;;;;;;;4.17;90.15;98571.23;106348;1254;62690;-80
2023/11/14 11:19:28;;;;;;;13.10;7.70;;;;;;;4.24;90.36;98560.74;106201;1258;60425;-82
2023/11/14 11:21:59;;;;;;;12.20;7.70;;;;;;;4.35;90.36;98556.64;106021;1255;74745;-81
2023/11/14 11:24:29;;;;;;;12.10;8.10;;;;;;;4.37;90.63;98544.20;106068;1255;68788;-82
2023/11/14 11:27:20;;;;;;;9.60;7.50;;;;;;;4.36;91.13;98541.13;105974;1254;74184;-82
2023/11/14 11:30:00;;;;;;;11.90;7.70;;;;;;;4.45;90.90;98535.03;106252;1258;62668;-80
2023/11/14 11:32:35;;;;;;;9.90;7.60;;;;;;;4.54;90.60;98529.92;106006;1257;60398;-81
2023/11/14 11:35:16;;;;;;;11.00;7.20;;;;;;;4.49;90.85;98523.04;105921;1254;74141;-79